sensor_id;sensor_type;location;lat;lon;timestamp;pressure;altitude;pressure_sealevel;temperature;humidity
53262;BME280;39658;51.090;-1.786;2024-03-07T00:00:37;102580.56;;;2.39;100.00
53262;BME280;39658;51.090;-1.786;2024-03-07T00:03:05;102555.38;;;2.41;100.00
53262;BME280;39658;51.090;-1.786;2024-03-07T00:05:31;102541.50;;;2.45;100.00
53262;BME280;39658;51.090;-1.786;2024-03-07T00:07:58;102513.69;;;2.48;100.00
53262;BME280;39658;51.090;-1.786;2024-03-07T00:10:25;102497.22;;;2.45;100.00
53262;BME280;39658;51.090;-1.786;2024-03-07T00:12:52;102491.19;;;2.38;100.00
53262;BME280;39658;51.090;-1.786;2024-03-07T00:15:20;102474.72;;;2.28;100.00
53262;BME280;39658;51.090;-1.786;2024-03-07T00:17:47;102460.06;;;2.07;100.00
53262;BME280;39658;51.090;-1.786;2024-03-07T00:20:14;102451.44;;;1.91;100.00
53262;BME280;39658;51.090;-1.786;2024-03-07T00:22:44;102429.75;;;1.77;100.00
53262;BME280;39658;51.090;-1.786;2024-03-07T00:25:11;102428.94;;;1.61;100.00
53262;BME280;39658;51.090;-1.786;2024-03-07T00:27:40;102420.28;;;1.43;100.00
53262;BME280;39658;51.090;-1.786;2024-03-07T00:30:07;102405.53;;;1.32;100.00
53262;BME280;39658;51.090;-1.786;2024-03-07T00:32:36;102401.25;;;1.23;100.00
53262;BME280;39658;51.090;-1.786;2024-03-07T00:35:05;102388.25;;;1.14;100.00
53262;BME280;39658;51.090;-1.786;2024-03-07T00:37:34;102383.06;;;1.04;100.00
53262;BME280;39658;51.090;-1.786;2024-03-07T00:40:00;102378.69;;;0.94;100.00
53262;BME280;39658;51.090;-1.786;2024-03-07T00:42:28;102375.25;;;0.84;100.00
53262;BME280;39658;51.090;-1.786;2024-03-07T00:44:55;102367.44;;;0.77;100.00
53262;BME280;39658;51.090;-1.786;2024-03-07T00:47:22;102359.63;;;0.69;100.00
53262;BME280;39658;51.090;-1.786;2024-03-07T00:49:50;102363.09;;;0.66;100.00
53262;BME280;39658;51.090;-1.786;2024-03-07T00:52:17;102350.97;;;0.61;100.00
53262;BME280;39658;51.090;-1.786;2024-03-07T00:54:43;102350.97;;;0.58;100.00
53262;BME280;39658;51.090;-1.786;2024-03-07T00:57:10;102350.97;;;0.47;100.00
53262;BME280;39658;51.090;-1.786;2024-03-07T00:59:37;102345.75;;;0.42;100.00
53262;BME280;39658;51.090;-1.786;2024-03-07T01:02:04;102336.22;;;0.41;100.00
53262;BME280;39658;51.090;-1.786;2024-03-07T01:04:31;102333.63;;;0.37;100.00
53262;BME280;39658;51.090;-1.786;2024-03-07T01:07:00;102337.94;;;0.34;100.00
53262;BME280;39658;51.090;-1.786;2024-03-07T01:09:28;102331.88;;;0.31;100.00
53262;BME280;39658;51.090;-1.786;2024-03-07T01:11:55;102332.78;;;0.36;100.00
53262;BME280;39658;51.090;-1.786;2024-03-07T01:14:22;102326.72;;;0.51;100.00
53262;BME280;39658;51.090;-1.786;2024-03-07T01:16:49;102316.34;;;0.62;100.00
53262;BME280;39658;51.090;-1.786;2024-03-07T01:19:16;102318.09;;;0.70;100.00
53262;BME280;39658;51.090;-1.786;2024-03-07T01:21:43;102308.56;;;0.68;100.00
53262;BME280;39658;51.090;-1.786;2024-03-07T01:24:12;102296.47;;;0.64;100.00
53262;BME280;39658;51.090;-1.786;2024-03-07T01:26:43;102304.25;;;0.58;100.00
53262;BME280;39658;51.090;-1.786;2024-03-07T01:29:10;102292.13;;;0.44;100.00
53262;BME280;39658;51.090;-1.786;2024-03-07T01:31:36;102293.84;;;0.38;100.00
53262;BME280;39658;51.090;-1.786;2024-03-07T01:34:03;102288.66;;;0.33;100.00
53262;BME280;39658;51.090;-1.786;2024-03-07T01:36:30;102283.47;;;0.30;100.00
53262;BME280;39658;51.090;-1.786;2024-03-07T01:38:57;102287.75;;;0.29;100.00
53262;BME280;39658;51.090;-1.786;2024-03-07T01:41:25;102280.84;;;0.27;100.00
53262;BME280;39658;51.090;-1.786;2024-03-07T01:43:52;102273.94;;;0.29;100.00
53262;BME280;39658;51.090;-1.786;2024-03-07T01:46:19;102268.75;;;0.32;100.00
53262;BME280;39658;51.090;-1.786;2024-03-07T01:48:46;102265.28;;;0.28;100.00
53262;BME280;39658;51.090;-1.786;2024-03-07T01:51:14;102261.81;;;0.28;100.00
53262;BME280;39658;51.090;-1.786;2024-03-07T01:53:41;102256.63;;;0.23;100.00
53262;BME280;39658;51.090;-1.786;2024-03-07T01:56:08;102254.91;;;0.16;100.00
53262;BME280;39658;51.090;-1.786;2024-03-07T01:58:36;102247.09;;;0.11;100.00
53262;BME280;39658;51.090;-1.786;2024-03-07T02:01:03;102245.34;;;0.09;100.00
53262;BME280;39658;51.090;-1.786;2024-03-07T02:03:30;102236.72;;;0.10;100.00
53262;BME280;39658;51.090;-1.786;2024-03-07T02:05:57;102228.97;;;0.21;100.00
53262;BME280;39658;51.090;-1.786;2024-03-07T02:08:24;102227.22;;;0.23;100.00
53262;BME280;39658;51.090;-1.786;2024-03-07T02:10:51;102222.03;;;0.20;100.00
53262;BME280;39658;51.090;-1.786;2024-03-07T02:13:18;102216.84;;;0.23;100.00
53262;BME280;39658;51.090;-1.786;2024-03-07T02:15:47;102213.41;;;0.24;100.00
53262;BME280;39658;51.090;-1.786;2024-03-07T02:18:14;102210.81;;;0.27;100.00
53262;BME280;39658;51.090;-1.786;2024-03-07T02:20:44;102205.63;;;0.25;100.00
53262;BME280;39658;51.090;-1.786;2024-03-07T02:23:11;102202.16;;;0.23;100.00
53262;BME280;39658;51.090;-1.786;2024-03-07T02:25:38;102193.50;;;0.20;100.00
53262;BME280;39658;51.090;-1.786;2024-03-07T02:28:05;102187.44;;;0.11;100.00
53262;BME280;39658;51.090;-1.786;2024-03-07T02:30:31;102183.97;;;0.08;100.00
53262;BME280;39658;51.090;-1.786;2024-03-07T02:32:58;102183.97;;;0.06;100.00
53262;BME280;39658;51.090;-1.786;2024-03-07T02:35:32;102171.88;;;0.07;100.00
53262;BME280;39658;51.090;-1.786;2024-03-07T02:38:01;102177.94;;;0.12;100.00
53262;BME280;39658;51.090;-1.786;2024-03-07T02:40:28;102173.59;;;0.15;100.00
53262;BME280;39658;51.090;-1.786;2024-03-07T02:42:56;102166.72;;;0.16;100.00
53262;BME280;39658;51.090;-1.786;2024-03-07T02:45:22;102164.13;;;0.16;100.00
53262;BME280;39658;51.090;-1.786;2024-03-07T02:47:49;102163.22;;;0.12;100.00
53262;BME280;39658;51.090;-1.786;2024-03-07T02:50:17;102152.84;;;0.14;100.00
53262;BME280;39658;51.090;-1.786;2024-03-07T02:52:44;102148.56;;;0.13;100.00
53262;BME280;39658;51.090;-1.786;2024-03-07T02:55:12;102147.66;;;0.18;100.00
53262;BME280;39658;51.090;-1.786;2024-03-07T02:57:39;102136.44;;;0.24;100.00
53262;BME280;39658;51.090;-1.786;2024-03-07T03:00:07;102143.38;;;0.25;100.00
53262;BME280;39658;51.090;-1.786;2024-03-07T03:02:45;102131.25;;;0.33;100.00
53262;BME280;39658;51.090;-1.786;2024-03-07T03:05:12;102114.81;;;0.41;100.00
53262;BME280;39658;51.090;-1.786;2024-03-07T03:07:39;102118.25;;;0.50;100.00
53262;BME280;39658;51.090;-1.786;2024-03-07T03:10:07;102114.78;;;0.68;100.00
53262;BME280;39658;51.090;-1.786;2024-03-07T03:12:37;102106.88;;;0.93;100.00
53262;BME280;39658;51.090;-1.786;2024-03-07T03:15:05;102107.72;;;1.04;100.00
53262;BME280;39658;51.090;-1.786;2024-03-07T03:17:35;102098.97;;;1.21;100.00
53262;BME280;39658;51.090;-1.786;2024-03-07T03:20:02;102104.09;;;1.35;100.00
53262;BME280;39658;51.090;-1.786;2024-03-07T03:22:35;102091.06;;;1.44;100.00
53262;BME280;39658;51.090;-1.786;2024-03-07T03:25:02;102093.66;;;1.42;100.00
53262;BME280;39658;51.090;-1.786;2024-03-07T03:27:29;102092.75;;;1.50;100.00
53262;BME280;39658;51.090;-1.786;2024-03-07T03:29:59;102082.31;;;1.59;100.00
53262;BME280;39658;51.090;-1.786;2024-03-07T03:32:26;102082.31;;;1.57;100.00
53262;BME280;39658;51.090;-1.786;2024-03-07T03:34:53;102087.53;;;1.56;100.00
53262;BME280;39658;51.090;-1.786;2024-03-07T03:37:20;102085.75;;;1.58;100.00
53262;BME280;39658;51.090;-1.786;2024-03-07T03:39:47;102072.81;;;1.53;100.00
53262;BME280;39658;51.090;-1.786;2024-03-07T03:42:15;102081.44;;;1.57;100.00
53262;BME280;39658;51.090;-1.786;2024-03-07T03:44:42;102077.13;;;1.56;100.00
53262;BME280;39658;51.090;-1.786;2024-03-07T03:47:11;102073.56;;;1.65;100.00
53262;BME280;39658;51.090;-1.786;2024-03-07T03:49:38;102072.66;;;1.72;100.00
53262;BME280;39658;51.090;-1.786;2024-03-07T03:52:05;102074.44;;;1.70;100.00
53262;BME280;39658;51.090;-1.786;2024-03-07T03:54:31;102078.75;;;1.68;100.00
53262;BME280;39658;51.090;-1.786;2024-03-07T03:56:58;102075.34;;;1.59;100.00
53262;BME280;39658;51.090;-1.786;2024-03-07T03:59:25;102074.44;;;1.70;100.00
53262;BME280;39658;51.090;-1.786;2024-03-07T04:01:53;102065.81;;;1.58;100.00
53262;BME280;39658;51.090;-1.786;2024-03-07T04:04:21;102071.88;;;1.64;100.00
53262;BME280;39658;51.090;-1.786;2024-03-07T04:06:48;102078.78;;;1.63;100.00
53262;BME280;39658;51.090;-1.786;2024-03-07T04:09:15;102069.34;;;1.54;100.00
53262;BME280;39658;51.090;-1.786;2024-03-07T04:11:44;102079.72;;;1.59;100.00
53262;BME280;39658;51.090;-1.786;2024-03-07T04:14:11;102079.69;;;1.64;100.00
53262;BME280;39658;51.090;-1.786;2024-03-07T04:16:38;102083.16;;;1.59;100.00
53262;BME280;39658;51.090;-1.786;2024-03-07T04:19:05;102092.69;;;1.60;100.00
53262;BME280;39658;51.090;-1.786;2024-03-07T04:21:35;102090.06;;;1.67;100.00
53262;BME280;39658;51.090;-1.786;2024-03-07T04:24:03;102077.09;;;1.60;100.00
53262;BME280;39658;51.090;-1.786;2024-03-07T04:26:30;102086.66;;;1.54;100.00
53262;BME280;39658;51.090;-1.786;2024-03-07T04:28:57;102088.38;;;1.56;100.00
53262;BME280;39658;51.090;-1.786;2024-03-07T04:31:24;102086.59;;;1.60;100.00
53262;BME280;39658;51.090;-1.786;2024-03-07T04:33:51;102085.75;;;1.61;100.00
53262;BME280;39658;51.090;-1.786;2024-03-07T04:36:18;102086.63;;;1.55;100.00
53262;BME280;39658;51.090;-1.786;2024-03-07T04:38:47;102084.97;;;1.47;100.00
53262;BME280;39658;51.090;-1.786;2024-03-07T04:41:14;102086.75;;;1.43;100.00
53262;BME280;39658;51.090;-1.786;2024-03-07T04:43:41;102078.03;;;1.47;100.00
53262;BME280;39658;51.090;-1.786;2024-03-07T04:46:08;102079.75;;;1.53;100.00
53262;BME280;39658;51.090;-1.786;2024-03-07T04:48:36;102073.72;;;1.49;100.00
53262;BME280;39658;51.090;-1.786;2024-03-07T04:51:03;102076.38;;;1.38;100.00
53262;BME280;39658;51.090;-1.786;2024-03-07T04:53:30;102078.09;;;1.35;100.00
53262;BME280;39658;51.090;-1.786;2024-03-07T04:55:58;102096.31;;;1.33;100.00
53262;BME280;39658;51.090;-1.786;2024-03-07T04:58:25;102090.28;;;1.30;100.00
53262;BME280;39658;51.090;-1.786;2024-03-07T05:00:52;102088.56;;;1.25;100.00
53262;BME280;39658;51.090;-1.786;2024-03-07T05:03:19;102086.88;;;1.21;100.00
53262;BME280;39658;51.090;-1.786;2024-03-07T05:05:46;102089.47;;;1.18;100.00
53262;BME280;39658;51.090;-1.786;2024-03-07T05:08:13;102088.56;;;1.22;100.00
53262;BME280;39658;51.090;-1.786;2024-03-07T05:10:40;102082.56;;;1.14;100.00
53262;BME280;39658;51.090;-1.786;2024-03-07T05:13:08;102090.38;;;1.06;100.00
53262;BME280;39658;51.090;-1.786;2024-03-07T05:15:36;102091.28;;;0.99;100.00
53262;BME280;39658;51.090;-1.786;2024-03-07T05:18:03;102094.81;;;0.84;100.00
53262;BME280;39658;51.090;-1.786;2024-03-07T05:20:30;102093.13;;;0.68;100.00
53262;BME280;39658;51.090;-1.786;2024-03-07T05:22:57;102094.88;;;0.61;100.00
53262;BME280;39658;51.090;-1.786;2024-03-07T05:25:24;102091.41;;;0.71;100.00
53262;BME280;39658;51.090;-1.786;2024-03-07T05:27:51;102097.41;;;0.80;100.00
53262;BME280;39658;51.090;-1.786;2024-03-07T05:30:20;102087.88;;;0.85;100.00
53262;BME280;39658;51.090;-1.786;2024-03-07T05:32:48;102099.06;;;0.96;100.00
53262;BME280;39658;51.090;-1.786;2024-03-07T05:35:15;102084.38;;;0.95;100.00
53262;BME280;39658;51.090;-1.786;2024-03-07T05:37:42;102092.19;;;0.91;100.00
53262;BME280;39658;51.090;-1.786;2024-03-07T05:40:12;102091.31;;;0.90;100.00
53262;BME280;39658;51.090;-1.786;2024-03-07T05:42:39;102091.28;;;0.93;100.00
53262;BME280;39658;51.090;-1.786;2024-03-07T05:45:06;102085.25;;;0.89;100.00
53262;BME280;39658;51.090;-1.786;2024-03-07T05:47:35;102090.44;;;0.93;100.00
53262;BME280;39658;51.090;-1.786;2024-03-07T05:50:02;102080.94;;;0.88;100.00
53262;BME280;39658;51.090;-1.786;2024-03-07T05:52:29;102082.63;;;0.96;100.00
53262;BME280;39658;51.090;-1.786;2024-03-07T05:54:56;102093.88;;;1.01;100.00
53262;BME280;39658;51.090;-1.786;2024-03-07T05:57:23;102093.84;;;1.07;100.00
53262;BME280;39658;51.090;-1.786;2024-03-07T05:59:50;102091.19;;;1.18;100.00
53262;BME280;39658;51.090;-1.786;2024-03-07T06:02:17;102093.78;;;1.21;100.00
53262;BME280;39658;51.090;-1.786;2024-03-07T06:04:47;102098.94;;;1.29;100.00
53262;BME280;39658;51.090;-1.786;2024-03-07T06:07:13;102092.84;;;1.34;100.00
53262;BME280;39658;51.090;-1.786;2024-03-07T06:09:40;102093.69;;;1.38;100.00
53262;BME280;39658;51.090;-1.786;2024-03-07T06:12:09;102096.25;;;1.42;100.00
53262;BME280;39658;51.090;-1.786;2024-03-07T06:14:35;102085.78;;;1.53;100.00
53262;BME280;39658;51.090;-1.786;2024-03-07T06:17:02;102087.53;;;1.56;100.00
53262;BME280;39658;51.090;-1.786;2024-03-07T06:19:29;102089.22;;;1.57;100.00
53262;BME280;39658;51.090;-1.786;2024-03-07T06:21:57;102083.16;;;1.59;100.00
53262;BME280;39658;51.090;-1.786;2024-03-07T06:24:24;102082.25;;;1.67;100.00
53262;BME280;39658;51.090;-1.786;2024-03-07T06:26:52;102080.47;;;1.70;100.00
53262;BME280;39658;51.090;-1.786;2024-03-07T06:29:26;102087.41;;;1.74;100.00
53262;BME280;39658;51.090;-1.786;2024-03-07T06:31:54;102083.06;;;1.75;100.00
53262;BME280;39658;51.090;-1.786;2024-03-07T06:34:21;102086.47;;;1.80;100.00
53262;BME280;39658;51.090;-1.786;2024-03-07T06:36:48;102088.16;;;1.87;100.00
53262;BME280;39658;51.090;-1.786;2024-03-07T06:39:16;102093.38;;;1.87;100.00
53262;BME280;39658;51.090;-1.786;2024-03-07T06:41:46;102097.66;;;1.93;100.00
53262;BME280;39658;51.090;-1.786;2024-03-07T06:44:13;102095.03;;;1.97;100.00
53262;BME280;39658;51.090;-1.786;2024-03-07T06:46:39;102095.00;;;2.01;100.00
53262;BME280;39658;51.090;-1.786;2024-03-07T06:49:06;102096.69;;;2.05;100.00
53262;BME280;39658;51.090;-1.786;2024-03-07T06:51:35;102087.97;;;2.12;100.00
53262;BME280;39658;51.090;-1.786;2024-03-07T06:54:02;102090.53;;;2.13;100.00
53262;BME280;39658;51.090;-1.786;2024-03-07T06:56:32;102087.06;;;2.16;100.00
53262;BME280;39658;51.090;-1.786;2024-03-07T06:58:59;102096.53;;;2.22;100.00
53262;BME280;39658;51.090;-1.786;2024-03-07T07:01:29;102093.81;;;2.36;100.00
53262;BME280;39658;51.090;-1.786;2024-03-07T07:03:56;102101.63;;;2.36;100.00
53262;BME280;39658;51.090;-1.786;2024-03-07T07:06:24;102092.97;;;2.33;100.00
53262;BME280;39658;51.090;-1.786;2024-03-07T07:08:51;102092.81;;;2.49;100.00
53262;BME280;39658;51.090;-1.786;2024-03-07T07:11:18;102099.69;;;2.53;100.00
53262;BME280;39658;51.090;-1.786;2024-03-07T07:13:46;102103.13;;;2.58;100.00
53262;BME280;39658;51.090;-1.786;2024-03-07T07:16:14;102101.22;;;2.74;100.00
53262;BME280;39658;51.090;-1.786;2024-03-07T07:18:44;102101.16;;;2.79;100.00
53262;BME280;39658;51.090;-1.786;2024-03-07T07:21:11;102108.09;;;2.83;100.00
53262;BME280;39658;51.090;-1.786;2024-03-07T07:23:41;102101.88;;;2.92;100.00
53262;BME280;39658;51.090;-1.786;2024-03-07T07:26:08;102094.94;;;2.94;100.00
53262;BME280;39658;51.090;-1.786;2024-03-07T07:28:35;102107.09;;;2.92;100.00
53262;BME280;39658;51.090;-1.786;2024-03-07T07:31:04;102103.53;;;2.99;100.00
53262;BME280;39658;51.090;-1.786;2024-03-07T07:33:31;102101.72;;;3.04;100.00
53262;BME280;39658;51.090;-1.786;2024-03-07T07:35:58;102098.28;;;3.02;100.00
53262;BME280;39658;51.090;-1.786;2024-03-07T07:38:24;102093.84;;;3.10;100.00
53262;BME280;39658;51.090;-1.786;2024-03-07T07:40:51;102092.03;;;3.15;100.00
53262;BME280;39658;51.090;-1.786;2024-03-07T07:43:18;102098.97;;;3.16;100.00
53262;BME280;39658;51.090;-1.786;2024-03-07T07:45:45;102095.34;;;3.28;100.00
53262;BME280;39658;51.090;-1.786;2024-03-07T07:48:13;102093.53;;;3.35;100.00
53262;BME280;39658;51.090;-1.786;2024-03-07T07:50:42;102093.34;;;3.47;100.00
53262;BME280;39658;51.090;-1.786;2024-03-07T07:53:08;102105.31;;;3.62;100.00
53262;BME280;39658;51.090;-1.786;2024-03-07T07:55:36;102103.44;;;3.70;100.00
53262;BME280;39658;51.090;-1.786;2024-03-07T07:58:04;102109.41;;;3.77;100.00
53262;BME280;39658;51.090;-1.786;2024-03-07T08:00:31;102110.19;;;3.82;100.00
53262;BME280;39658;51.090;-1.786;2024-03-07T08:02:59;102119.84;;;3.78;100.00
53262;BME280;39658;51.090;-1.786;2024-03-07T08:05:28;102137.94;;;3.89;100.00
53262;BME280;39658;51.090;-1.786;2024-03-07T08:07:56;102142.25;;;3.92;100.00
53262;BME280;39658;51.090;-1.786;2024-03-07T08:10:24;102162.06;;;4.04;100.00
53262;BME280;39658;51.090;-1.786;2024-03-07T08:12:54;102177.31;;;4.30;100.00
53262;BME280;39658;51.090;-1.786;2024-03-07T08:15:21;102203.66;;;4.14;100.00
53262;BME280;39658;51.090;-1.786;2024-03-07T08:17:48;102237.34;;;4.31;100.00
53262;BME280;39658;51.090;-1.786;2024-03-07T08:20:17;102276.53;;;4.30;100.00
53262;BME280;39658;51.090;-1.786;2024-03-07T08:22:48;102306.91;;;4.36;100.00
53262;BME280;39658;51.090;-1.786;2024-03-07T08:25:16;102340.63;;;4.53;100.00
53262;BME280;39658;51.090;-1.786;2024-03-07T08:27:45;102411.78;;;4.70;100.00
53262;BME280;39658;51.090;-1.786;2024-03-07T08:30:12;102506.44;;;4.91;100.00
53262;BME280;39658;51.090;-1.786;2024-03-07T08:32:40;102607.38;;;5.01;100.00
53262;BME280;39658;51.090;-1.786;2024-03-07T08:35:08;102678.00;;;4.98;100.00
53262;BME280;39658;51.090;-1.786;2024-03-07T08:37:36;102742.50;;;4.99;100.00
53262;BME280;39658;51.090;-1.786;2024-03-07T08:40:06;102779.69;;;5.26;100.00
53262;BME280;39658;51.090;-1.786;2024-03-07T08:42:35;102816.38;;;5.19;100.00
53262;BME280;39658;51.090;-1.786;2024-03-07T08:45:04;102795.31;;;5.32;100.00
53262;BME280;39658;51.090;-1.786;2024-03-07T08:47:31;102733.78;;;5.71;100.00
53262;BME280;39658;51.090;-1.786;2024-03-07T08:49:58;102660.31;;;5.84;100.00
53262;BME280;39658;51.090;-1.786;2024-03-07T08:52:26;102571.59;;;6.20;100.00
53262;BME280;39658;51.090;-1.786;2024-03-07T08:54:54;102459.78;;;6.65;100.00
53262;BME280;39658;51.090;-1.786;2024-03-07T08:57:22;102334.78;;;7.04;100.00
53262;BME280;39658;51.090;-1.786;2024-03-07T08:59:49;102173.94;;;6.72;100.00
53262;BME280;39658;51.090;-1.786;2024-03-07T09:02:16;102006.06;;;7.05;100.00
53262;BME280;39658;51.090;-1.786;2024-03-07T09:04:43;101804.16;;;7.30;100.00
53262;BME280;39658;51.090;-1.786;2024-03-07T09:07:10;101644.44;;;7.22;100.00
53262;BME280;39658;51.090;-1.786;2024-03-07T09:09:37;101496.66;;;7.23;100.00
53262;BME280;39658;51.090;-1.786;2024-03-07T09:12:05;101411.75;;;7.67;100.00
53262;BME280;39658;51.090;-1.786;2024-03-07T09:14:33;101394.84;;;8.53;100.00
53262;BME280;39658;51.090;-1.786;2024-03-07T09:17:01;101339.03;;;9.02;100.00
53262;BME280;39658;51.090;-1.786;2024-03-07T09:19:30;101302.69;;;9.61;100.00
53262;BME280;39658;51.090;-1.786;2024-03-07T09:21:57;101265.13;;;11.73;100.00
53262;BME280;39658;51.090;-1.786;2024-03-07T09:24:23;101297.19;;;12.52;100.00
53262;BME280;39658;51.090;-1.786;2024-03-07T09:26:51;101435.47;;;11.05;100.00
53262;BME280;39658;51.090;-1.786;2024-03-07T09:29:22;101445.69;;;11.11;100.00
53262;BME280;39658;51.090;-1.786;2024-03-07T09:31:50;101445.69;;;10.64;100.00
53262;BME280;39658;51.090;-1.786;2024-03-07T09:34:19;101468.66;;;11.56;100.00
53262;BME280;39658;51.090;-1.786;2024-03-07T09:36:47;101501.03;;;12.78;100.00
53262;BME280;39658;51.090;-1.786;2024-03-07T09:39:14;101486.44;;;13.26;100.00
53262;BME280;39658;51.090;-1.786;2024-03-07T09:41:41;101495.56;;;14.15;100.00
53262;BME280;39658;51.090;-1.786;2024-03-07T09:44:09;101404.59;;;15.95;100.00
53262;BME280;39658;51.090;-1.786;2024-03-07T09:46:37;101342.84;;;16.58;100.00
53262;BME280;39658;51.090;-1.786;2024-03-07T09:49:06;101350.38;;;15.62;100.00
53262;BME280;39658;51.090;-1.786;2024-03-07T09:51:36;101354.81;;;16.64;100.00
53262;BME280;39658;51.090;-1.786;2024-03-07T09:54:03;101373.06;;;14.23;100.00
53262;BME280;39658;51.090;-1.786;2024-03-07T09:56:31;101364.31;;;14.71;100.00
53262;BME280;39658;51.090;-1.786;2024-03-07T09:59:03;101363.56;;;13.16;100.00
53262;BME280;39658;51.090;-1.786;2024-03-07T10:01:32;101368.38;;;14.51;100.00
53262;BME280;39658;51.090;-1.786;2024-03-07T10:04:01;101382.78;;;14.72;100.00
53262;BME280;39658;51.090;-1.786;2024-03-07T10:06:38;101382.06;;;12.20;100.00
53262;BME280;39658;51.090;-1.786;2024-03-07T10:09:05;101368.50;;;13.35;100.00
53262;BME280;39658;51.090;-1.786;2024-03-07T10:11:33;101378.88;;;15.14;100.00
53262;BME280;39658;51.090;-1.786;2024-03-07T10:14:00;101389.91;;;13.58;100.00
53262;BME280;39658;51.090;-1.786;2024-03-07T10:16:28;101390.91;;;16.00;100.00
53262;BME280;39658;51.090;-1.786;2024-03-07T10:18:55;101425.63;;;17.64;100.00
53262;BME280;39658;51.090;-1.786;2024-03-07T10:21:22;101415.16;;;17.51;100.00
53262;BME280;39658;51.090;-1.786;2024-03-07T10:23:50;101407.59;;;15.79;100.00
53262;BME280;39658;51.090;-1.786;2024-03-07T10:26:32;101413.53;;;16.17;100.00
53262;BME280;39658;51.090;-1.786;2024-03-07T10:28:59;101406.75;;;14.84;100.00
53262;BME280;39658;51.090;-1.786;2024-03-07T10:31:29;101407.41;;;13.48;100.00
53262;BME280;39658;51.090;-1.786;2024-03-07T10:33:59;101370.19;;;12.82;100.00
53262;BME280;39658;51.090;-1.786;2024-03-07T10:36:27;101344.34;;;11.59;100.00
53262;BME280;39658;51.090;-1.786;2024-03-07T10:38:57;101332.25;;;12.41;100.00
53262;BME280;39658;51.090;-1.786;2024-03-07T10:41:44;101349.28;;;14.22;100.00
53262;BME280;39658;51.090;-1.786;2024-03-07T10:44:18;101367.81;;;16.23;100.00
53262;BME280;39658;51.090;-1.786;2024-03-07T10:46:51;101375.94;;;17.20;100.00
53262;BME280;39658;51.090;-1.786;2024-03-07T10:49:19;101391.38;;;17.05;100.00
53262;BME280;39658;51.090;-1.786;2024-03-07T10:51:58;101387.81;;;17.16;100.00
53262;BME280;39658;51.090;-1.786;2024-03-07T10:54:36;101377.25;;;19.10;100.00
53262;BME280;39658;51.090;-1.786;2024-03-07T10:57:20;101370.63;;;20.28;100.00
53262;BME280;39658;51.090;-1.786;2024-03-07T10:59:50;101359.84;;;21.02;100.00
53262;BME280;39658;51.090;-1.786;2024-03-07T11:02:30;101347.91;;;20.78;100.00
53262;BME280;39658;51.090;-1.786;2024-03-07T11:05:00;101361.75;;;18.84;100.00
53262;BME280;39658;51.090;-1.786;2024-03-07T11:07:27;101356.13;;;18.68;100.00
53262;BME280;39658;51.090;-1.786;2024-03-07T11:09:56;101351.41;;;19.67;100.00
53262;BME280;39658;51.090;-1.786;2024-03-07T11:12:24;101356.38;;;17.52;100.00
53262;BME280;39658;51.090;-1.786;2024-03-07T11:14:54;101368.34;;;17.58;100.00
53262;BME280;39658;51.090;-1.786;2024-03-07T11:17:23;101369.38;;;16.48;100.00
53262;BME280;39658;51.090;-1.786;2024-03-07T11:19:52;101359.03;;;14.21;100.00
53262;BME280;39658;51.090;-1.786;2024-03-07T11:22:31;101349.09;;;17.54;100.00
53262;BME280;39658;51.090;-1.786;2024-03-07T11:25:05;101342.91;;;17.85;100.00
53262;BME280;39658;51.090;-1.786;2024-03-07T11:27:36;101335.59;;;17.25;100.00
53262;BME280;39658;51.090;-1.786;2024-03-07T11:30:07;101329.91;;;14.45;100.00
53262;BME280;39658;51.090;-1.786;2024-03-07T11:32:35;101321.56;;;12.57;100.00
53262;BME280;39658;51.090;-1.786;2024-03-07T11:35:11;101312.63;;;13.25;100.00
53262;BME280;39658;51.090;-1.786;2024-03-07T11:37:40;101324.66;;;15.16;100.00
53262;BME280;39658;51.090;-1.786;2024-03-07T11:40:10;101328.44;;;13.40;100.00
53262;BME280;39658;51.090;-1.786;2024-03-07T11:42:44;101314.81;;;15.30;100.00
53262;BME280;39658;51.090;-1.786;2024-03-07T11:45:12;101322.75;;;15.88;100.00
53262;BME280;39658;51.090;-1.786;2024-03-07T11:47:50;101320.56;;;14.15;100.00
53262;BME280;39658;51.090;-1.786;2024-03-07T11:50:24;101306.19;;;13.94;100.00
53262;BME280;39658;51.090;-1.786;2024-03-07T11:52:52;101305.75;;;12.83;100.00
53262;BME280;39658;51.090;-1.786;2024-03-07T11:55:20;101299.84;;;14.21;100.00
53262;BME280;39658;51.090;-1.786;2024-03-07T11:57:47;101297.88;;;13.08;100.00
53262;BME280;39658;51.090;-1.786;2024-03-07T12:00:14;101310.72;;;14.90;100.00
53262;BME280;39658;51.090;-1.786;2024-03-07T12:02:42;101312.13;;;15.99;100.00
53262;BME280;39658;51.090;-1.786;2024-03-07T12:05:10;101293.38;;;14.12;100.00
53262;BME280;39658;51.090;-1.786;2024-03-07T12:07:43;101290.03;;;13.07;100.00
53262;BME280;39658;51.090;-1.786;2024-03-07T12:10:09;101284.00;;;12.37;100.00
53262;BME280;39658;51.090;-1.786;2024-03-07T12:12:36;101266.25;;;12.80;100.00
53262;BME280;39658;51.090;-1.786;2024-03-07T12:15:05;101257.19;;;12.97;100.00
53262;BME280;39658;51.090;-1.786;2024-03-07T12:17:35;101250.44;;;12.52;100.00
53262;BME280;39658;51.090;-1.786;2024-03-07T12:20:02;101264.63;;;13.81;100.00
53262;BME280;39658;51.090;-1.786;2024-03-07T12:22:51;101251.91;;;14.83;100.00
53262;BME280;39658;51.090;-1.786;2024-03-07T12:25:18;101255.66;;;15.95;100.00
53262;BME280;39658;51.090;-1.786;2024-03-07T12:27:47;101242.34;;;14.21;100.00
53262;BME280;39658;51.090;-1.786;2024-03-07T12:30:16;101249.06;;;13.64;100.00
53262;BME280;39658;51.090;-1.786;2024-03-07T12:32:48;101231.00;;;12.26;100.00
53262;BME280;39658;51.090;-1.786;2024-03-07T12:35:15;101212.72;;;12.76;100.00
53262;BME280;39658;51.090;-1.786;2024-03-07T12:37:41;101214.94;;;13.72;100.00
53262;BME280;39658;51.090;-1.786;2024-03-07T12:40:13;101203.44;;;14.22;100.00
53262;BME280;39658;51.090;-1.786;2024-03-07T12:42:46;101218.06;;;13.90;100.00